Time;durP1;ratioP1;P1;durP2;ratioP2;P2;SDS_P1;SDS_P2;PMS_P1;PMS_P2;Temp;Humidity;BMP_temperature;BMP_pressure;BME280_temperature;BME280_humidity;BME280_pressure;Samples;Min_cycle;Max_cycle;Signal;HPM_P1;HPM_P2
2023/06/11 00:02:33;;;;;;;2.38;2.17;;;;;;;;;;12906040;23;20036;-90
2023/06/11 00:07:39;;;;;;;2.33;2.10;;;;;;;;;;12884941;23;20420;-90
2023/06/11 00:12:42;;;;;;;2.70;2.35;;;;;;;;;;12885021;23;20024;-90
2023/06/11 00:17:47;;;;;;;3.30;2.60;;;;;;;;;;12884392;23;20016;-90
2023/06/11 00:22:52;;;;;;;2.40;2.13;;;;;;;;;;12912686;23;20074;-90
2023/06/11 00:27:56;;;;;;;2.58;2.38;;;;;;;;;;12884865;23;20019;-90
2023/06/11 00:33:00;;;;;;;2.95;2.60;;;;;;;;;;12885904;23;20051;-89
2023/06/11 00:38:06;;;;;;;2.83;2.22;;;;;;;;;;12881660;23;20023;-89
2023/06/11 00:43:10;;;;;;;2.40;2.20;;;;;;;;;;12883396;23;20315;-88
2023/06/11 00:48:15;;;;;;;3.17;2.88;;;;;;;;;;12882808;23;20570;-88
2023/06/11 00:53:21;;;;;;;3.30;2.50;;;;;;;;;;12887024;23;20016;-90
2023/06/11 00:58:25;;;;;;;2.20;2.00;;;;;;;;;;12887588;23;20020;-89
2023/06/11 01:03:33;;;;;;;2.88;2.35;;;;;;;;;;12888464;23;20023;-89
2023/06/11 01:08:40;;;;;;;2.90;2.60;;;;;;;;;;12885506;23;20354;-89
2023/06/11 01:13:43;;;;;;;2.95;2.58;;;;;;;;;;12884603;23;20016;-89
2023/06/11 01:18:58;;;;;;;2.45;2.25;;;;;;;;;;12881482;23;20619;-89
2023/06/11 01:24:14;;;;;;;2.72;2.38;;;;;;;;;;12879921;23;20020;-87
2023/06/11 01:29:23;;;;;;;2.58;2.03;;;;;;;;;;12875724;23;20031;-88
2023/06/11 01:34:29;;;;;;;3.20;2.20;;;;;;;;;;12873200;22;20028;-88
2023/06/11 01:39:32;;;;;;;2.78;2.35;;;;;;;;;;12877197;23;20028;-88
2023/06/11 01:44:41;;;;;;;2.35;2.15;;;;;;;;;;12906140;22;20028;-88
2023/06/11 01:49:45;;;;;;;3.13;2.72;;;;;;;;;;12881002;23;20024;-88
2023/06/11 01:54:49;;;;;;;2.67;2.47;;;;;;;;;;12877937;22;20368;-88
2023/06/11 01:59:54;;;;;;;2.72;2.33;;;;;;;;;;12881306;23;20016;-88
2023/06/11 02:04:57;;;;;;;5.38;2.67;;;;;;;;;;12881129;22;20028;-88
2023/06/11 02:10:01;;;;;;;4.53;2.63;;;;;;;;;;12883389;23;20039;-88
2023/06/11 02:15:08;;;;;;;2.95;2.40;;;;;;;;;;12883018;22;20028;-87
2023/06/11 02:20:14;;;;;;;4.00;2.85;;;;;;;;;;12883541;23;20015;-88
2023/06/11 02:25:17;;;;;;;2.88;2.58;;;;;;;;;;12882244;22;20336;-89
2023/06/11 02:30:22;;;;;;;3.00;2.70;;;;;;;;;;12909439;23;20044;-89
2023/06/11 02:35:25;;;;;;;2.65;2.30;;;;;;;;;;12883853;22;20028;-88
2023/06/11 02:40:29;;;;;;;2.63;2.42;;;;;;;;;;12884810;23;20012;-89
2023/06/11 02:45:34;;;;;;;3.20;2.60;;;;;;;;;;12879210;22;20591;-90
2023/06/11 02:50:38;;;;;;;2.63;2.43;;;;;;;;;;12909105;23;20773;-90
2023/06/11 02:55:41;;;;;;;2.90;2.65;;;;;;;;;;12885853;22;20627;-90
2023/06/11 03:00:47;;;;;;;2.75;2.28;;;;;;;;;;12881121;23;20016;-89
2023/06/11 03:05:50;;;;;;;2.60;2.33;;;;;;;;;;12882530;22;20082;-92
2023/06/11 03:10:54;;;;;;;2.70;2.50;;;;;;;;;;12884338;23;20044;-89
2023/06/11 03:15:59;;;;;;;3.10;2.30;;;;;;;;;;12884826;22;20024;-89
2023/06/11 03:21:03;;;;;;;2.75;2.35;;;;;;;;;;12884905;23;20024;-92
2023/06/11 03:26:07;;;;;;;2.40;2.20;;;;;;;;;;12884961;22;20696;-89
2023/06/11 03:31:18;;;;;;;2.38;2.17;;;;;;;;;;12885110;23;20034;-90
2023/06/11 03:36:24;;;;;;;5.00;2.40;;;;;;;;;;12884494;22;20484;-89
2023/06/11 03:41:29;;;;;;;2.83;2.40;;;;;;;;;;12909805;23;20030;-90
2023/06/11 03:46:35;;;;;;;2.95;2.35;;;;;;;;;;12909773;22;20341;-89
2023/06/11 03:51:39;;;;;;;2.67;2.42;;;;;;;;;;12884064;23;20607;-90
2023/06/11 03:56:43;;;;;;;3.45;2.80;;;;;;;;;;12883757;22;20505;-90
2023/06/11 04:01:48;;;;;;;6.72;2.90;;;;;;;;;;12909534;23;20024;-90
2023/06/11 04:06:52;;;;;;;2.42;2.22;;;;;;;;;;12884092;22;20024;-91
2023/06/11 04:11:56;;;;;;;2.58;2.35;;;;;;;;;;12884123;23;20028;-89
2023/06/11 04:17:01;;;;;;;3.25;2.80;;;;;;;;;;12884170;22;20051;-89
2023/06/11 04:22:05;;;;;;;4.88;3.03;;;;;;;;;;12908425;23;20103;-91
2023/06/11 04:27:11;;;;;;;4.10;2.60;;;;;;;;;;12882380;23;20467;-90
2023/06/11 04:32:20;;;;;;;3.38;2.90;;;;;;;;;;12883723;23;20023;-90
2023/06/11 04:37:25;;;;;;;3.20;2.65;;;;;;;;;;12883044;23;20027;-90
2023/06/11 04:42:29;;;;;;;4.05;2.25;;;;;;;;;;12881886;23;20031;-90
2023/06/11 04:47:35;;;;;;;2.65;2.40;;;;;;;;;;12881182;23;20024;-90
2023/06/11 04:52:38;;;;;;;4.10;2.65;;;;;;;;;;12909275;23;20036;-90
2023/06/11 04:57:43;;;;;;;3.92;2.45;;;;;;;;;;12887323;23;20074;-90
2023/06/11 05:02:50;;;;;;;3.90;2.13;;;;;;;;;;12887767;23;20020;-90
2023/06/11 05:07:53;;;;;;;3.00;2.30;;;;;;;;;;12887848;23;20020;-92
2023/06/11 05:12:57;;;;;;;3.00;2.00;;;;;;;;;;12887839;23;20254;-90
2023/06/11 05:18:03;;;;;;;2.65;2.40;;;;;;;;;;12886223;23;20048;-89
2023/06/11 05:23:08;;;;;;;2.85;2.63;;;;;;;;;;12888169;23;20383;-90
2023/06/11 05:28:12;;;;;;;2.70;2.50;;;;;;;;;;12887317;23;20103;-90
2023/06/11 05:33:17;;;;;;;2.58;2.38;;;;;;;;;;12887122;23;20043;-90
2023/06/11 05:38:22;;;;;;;3.97;2.38;;;;;;;;;;12886582;23;20020;-90
2023/06/11 05:43:27;;;;;;;3.07;2.47;;;;;;;;;;12887733;23;20027;-91
2023/06/11 05:48:32;;;;;;;1.77;1.67;;;;;;;;;;12886431;23;20090;-91
2023/06/11 05:53:36;;;;;;;;;;;;;;;;;;12886442;23;20501;-91
2023/06/11 05:58:40;;;;;;;1.60;1.50;;;;;;;;;;12886872;23;20645;-90
2023/06/11 06:03:45;;;;;;;2.05;1.67;;;;;;;;;;12886197;23;20028;-90
2023/06/11 06:08:49;;;;;;;2.15;1.85;;;;;;;;;;12883798;23;20335;-90
2023/06/11 06:13:53;;;;;;;2.05;1.67;;;;;;;;;;12885294;23;20028;-89
2023/06/11 06:18:58;;;;;;;3.10;2.05;;;;;;;;;;12884590;23;20020;-90
2023/06/11 06:24:02;;;;;;;5.43;2.42;;;;;;;;;;12885082;23;20071;-90
2023/06/11 06:29:05;;;;;;;2.60;2.40;;;;;;;;;;12884074;23;20024;-89
2023/06/11 06:34:12;;;;;;;3.67;2.00;;;;;;;;;;12883928;22;20028;-90
2023/06/11 06:39:15;;;;;;;3.00;2.20;;;;;;;;;;12884179;23;20012;-90
2023/06/11 06:44:19;;;;;;;2.08;1.88;;;;;;;;;;12884719;22;20024;-89
2023/06/11 06:49:24;;;;;;;2.55;2.00;;;;;;;;;;12884200;23;20360;-89
2023/06/11 06:54:28;;;;;;;1.98;1.77;;;;;;;;;;12883977;22;20024;-89
2023/06/11 06:59:32;;;;;;;2.15;1.95;;;;;;;;;;12881929;23;20028;-89
2023/06/11 07:04:37;;;;;;;1.95;1.80;;;;;;;;;;12882445;22;20079;-90
2023/06/11 07:09:40;;;;;;;1.87;1.77;;;;;;;;;;12884554;23;20024;-89
2023/06/11 07:14:44;;;;;;;2.78;1.80;;;;;;;;;;12883455;22;20024;-90
2023/06/11 07:19:50;;;;;;;2.70;2.00;;;;;;;;;;12884382;23;20055;-90
2023/06/11 07:24:56;;;;;;;1.70;1.60;;;;;;;;;;12883790;22;20099;-89
2023/06/11 07:29:59;;;;;;;2.30;1.55;;;;;;;;;;12884709;23;20640;-89
2023/06/11 07:35:06;;;;;;;2.97;1.90;;;;;;;;;;12884616;22;20104;-89
2023/06/11 07:40:12;;;;;;;3.55;1.88;;;;;;;;;;12884341;23;20031;-89
2023/06/11 07:45:16;;;;;;;3.30;1.95;;;;;;;;;;12883428;22;20024;-90
2023/06/11 07:50:22;;;;;;;1.67;1.50;;;;;;;;;;12883897;23;20016;-89
2023/06/11 07:55:26;;;;;;;2.70;1.67;;;;;;;;;;12883096;22;20028;-90
2023/06/11 08:00:29;;;;;;;3.25;2.10;;;;;;;;;;12884286;23;20627;-90
2023/06/11 08:05:34;;;;;;;2.35;2.03;;;;;;;;;;12884508;22;20078;-89
2023/06/11 08:10:38;;;;;;;4.18;2.30;;;;;;;;;;12911724;23;20055;-90
2023/06/11 08:15:42;;;;;;;3.20;2.33;;;;;;;;;;12884793;22;20024;-90
2023/06/11 08:20:47;;;;;;;2.38;1.83;;;;;;;;;;12883587;23;20020;-90
2023/06/11 08:25:51;;;;;;;2.15;1.95;;;;;;;;;;12886366;22;20020;-92
2023/06/11 08:30:55;;;;;;;3.20;2.15;;;;;;;;;;12887533;23;20395;-89
2023/06/11 08:36:00;;;;;;;3.47;2.50;;;;;;;;;;12887831;22;20024;-89
2023/06/11 08:41:04;;;;;;;3.03;2.33;;;;;;;;;;12888150;23;20023;-89
2023/06/11 08:46:11;;;;;;;2.58;2.17;;;;;;;;;;12887890;22;20020;-90
2023/06/11 08:51:17;;;;;;;3.60;2.75;;;;;;;;;;12888392;23;20039;-94
2023/06/11 08:56:20;;;;;;;2.83;2.50;;;;;;;;;;12886595;22;20031;-89
2023/06/11 09:01:25;;;;;;;3.47;2.90;;;;;;;;;;12885430;23;20024;-94
2023/06/11 09:06:29;;;;;;;2.63;2.40;;;;;;;;;;12912954;22;20024;-90
2023/06/11 09:11:34;;;;;;;2.70;2.17;;;;;;;;;;12887921;23;20086;-91
2023/06/11 09:16:42;;;;;;;2.00;1.80;;;;;;;;;;12887676;22;20028;-88
2023/06/11 09:21:51;;;;;;;3.33;2.17;;;;;;;;;;12912188;23;20024;-89
2023/06/11 09:26:58;;;;;;;2.17;1.98;;;;;;;;;;12886200;22;20367;-93
2023/06/11 09:32:03;;;;;;;2.25;1.92;;;;;;;;;;12886151;23;20111;-89
2023/06/11 09:37:13;;;;;;;2.42;2.20;;;;;;;;;;12885116;23;20028;-92
2023/06/11 09:42:24;;;;;;;2.30;1.80;;;;;;;;;;12884821;23;20032;-89
2023/06/11 09:47:29;;;;;;;2.25;1.90;;;;;;;;;;12911522;22;20028;-89
2023/06/11 09:52:38;;;;;;;3.10;2.50;;;;;;;;;;12884879;23;20031;-90
2023/06/11 09:57:43;;;;;;;3.38;2.13;;;;;;;;;;12884704;23;20027;-90
2023/06/11 10:02:47;;;;;;;4.45;2.72;;;;;;;;;;12911368;23;20024;-89
2023/06/11 10:07:57;;;;;;;2.80;2.30;;;;;;;;;;12883608;23;20455;-89
2023/06/11 10:13:01;;;;;;;3.63;2.58;;;;;;;;;;12908539;23;20020;-91
2023/06/11 10:18:14;;;;;;;3.22;2.53;;;;;;;;;;12911467;22;20038;-90
2023/06/11 10:23:20;;;;;;;2.53;2.33;;;;;;;;;;12876768;23;20731;-88
2023/06/11 10:28:37;;;;;;;3.10;2.80;;;;;;;;;;12884670;23;20024;-89
2023/06/11 10:33:44;;;;;;;3.97;2.72;;;;;;;;;;12855847;23;20031;-88
2023/06/11 10:38:52;;;;;;;2.63;2.20;;;;;;;;;;12879258;23;20402;-90
2023/06/11 10:43:57;;;;;;;3.10;2.28;;;;;;;;;;12884810;23;20050;-91
2023/06/11 10:49:02;;;;;;;2.58;2.10;;;;;;;;;;12884791;23;20357;-88
2023/06/11 10:54:08;;;;;;;4.78;2.67;;;;;;;;;;12880194;23;20031;-88
2023/06/11 10:59:13;;;;;;;3.05;2.63;;;;;;;;;;12880820;23;20094;-89
2023/06/11 11:04:17;;;;;;;3.25;2.72;;;;;;;;;;12883165;22;20074;-89
2023/06/11 11:09:24;;;;;;;1.97;1.80;;;;;;;;;;12883644;23;20024;-89
2023/06/11 11:14:32;;;;;;;3.03;2.50;;;;;;;;;;12908577;22;20051;-89
2023/06/11 11:19:41;;;;;;;3.95;2.67;;;;;;;;;;12884008;23;20023;-87
2023/06/11 11:24:46;;;;;;;2.58;2.38;;;;;;;;;;12909441;22;20016;-89
2023/06/11 11:29:50;;;;;;;;;;;;;;;;;;12884408;23;20086;-88
2023/06/11 11:34:55;;;;;;;3.85;2.17;;;;;;;;;;12910357;22;19986;-87
2023/06/11 11:40:06;;;;;;;2.65;1.98;;;;;;;;;;12882937;23;20020;-88
2023/06/11 11:45:14;;;;;;;3.25;2.35;;;;;;;;;;12908875;22;20020;-90
2023/06/11 11:50:22;;;;;;;3.97;3.03;;;;;;;;;;12908461;23;20472;-89
2023/06/11 11:55:29;;;;;;;4.45;2.40;;;;;;;;;;12883071;22;20074;-92
2023/06/11 12:00:34;;;;;;;2.22;1.75;;;;;;;;;;12882899;23;20078;-87
2023/06/11 12:05:38;;;;;;;2.40;2.05;;;;;;;;;;12882484;22;20016;-88
2023/06/11 12:10:45;;;;;;;3.15;2.20;;;;;;;;;;12883686;23;20028;-88
2023/06/11 12:15:49;;;;;;;2.78;2.13;;;;;;;;;;12880883;22;20020;-88
2023/06/11 12:20:53;;;;;;;2.63;2.25;;;;;;;;;;12924244;23;20074;-88
2023/06/11 12:25:59;;;;;;;2.67;2.42;;;;;;;;;;12879434;22;20398;-90
2023/06/11 12:31:03;;;;;;;2.58;2.38;;;;;;;;;;12907123;23;20051;-88
2023/06/11 12:36:06;;;;;;;2.38;2.17;;;;;;;;;;12879708;22;20043;-90
2023/06/11 12:41:11;;;;;;;2.53;2.30;;;;;;;;;;12905852;23;20027;-89
2023/06/11 12:46:16;;;;;;;2.40;2.20;;;;;;;;;;12905876;22;20476;-89
2023/06/11 12:51:20;;;;;;;2.85;2.40;;;;;;;;;;12881948;23;20387;-89
2023/06/11 12:56:25;;;;;;;2.35;2.15;;;;;;;;;;12907263;22;20024;-87
2023/06/11 13:01:29;;;;;;;2.92;2.35;;;;;;;;;;12881442;23;20486;-89
2023/06/11 13:06:33;;;;;;;2.97;2.07;;;;;;;;;;12879956;22;20106;-89
2023/06/11 13:11:38;;;;;;;;;;;;;;;;;;12908301;23;20040;-88
2023/06/11 13:16:43;;;;;;;2.20;1.90;;;;;;;;;;12883199;22;19923;-89
2023/06/11 13:21:47;;;;;;;2.92;2.40;;;;;;;;;;12885800;23;20063;-92
2023/06/11 13:26:52;;;;;;;3.53;2.22;;;;;;;;;;12885682;22;20024;-91
2023/06/11 13:31:56;;;;;;;3.05;2.33;;;;;;;;;;12886948;23;20016;-92
2023/06/11 13:36:59;;;;;;;2.88;2.20;;;;;;;;;;12883938;22;20024;-88
2023/06/11 13:42:05;;;;;;;2.25;2.05;;;;;;;;;;12913678;23;20047;-88
2023/06/11 13:47:09;;;;;;;1.80;1.70;;;;;;;;;;12912829;22;20800;-88
2023/06/11 13:52:12;;;;;;;3.70;2.27;;;;;;;;;;12884702;23;20024;-88
2023/06/11 13:57:17;;;;;;;3.60;2.65;;;;;;;;;;12884913;23;20518;-89
2023/06/11 14:02:20;;;;;;;2.58;2.17;;;;;;;;;;12911977;23;20456;-89
2023/06/11 14:07:24;;;;;;;1.75;1.65;;;;;;;;;;12909863;23;20514;-90
2023/06/11 14:12:29;;;;;;;2.42;2.15;;;;;;;;;;12885398;23;20020;-91
2023/06/11 14:17:34;;;;;;;4.18;2.15;;;;;;;;;;12884977;23;20073;-88
2023/06/11 14:22:37;;;;;;;2.42;2.20;;;;;;;;;;12885874;23;20023;-88
2023/06/11 14:27:43;;;;;;;3.00;2.70;;;;;;;;;;12911131;22;20518;-89
2023/06/11 14:32:46;;;;;;;2.30;2.10;;;;;;;;;;12912445;23;20082;-89
2023/06/11 14:37:50;;;;;;;2.05;1.85;;;;;;;;;;12884150;23;20356;-91
2023/06/11 14:42:54;;;;;;;2.55;2.33;;;;;;;;;;12912229;23;20027;-89
2023/06/11 14:47:58;;;;;;;;;;;;;;;;;;12911592;22;20032;-88
2023/06/11 14:53:01;;;;;;;2.13;1.90;;;;;;;;;;12909130;23;19915;-89
2023/06/11 14:58:06;;;;;;;2.63;1.88;;;;;;;;;;12910511;22;20086;-88
2023/06/11 15:03:10;;;;;;;3.95;1.80;;;;;;;;;;12883875;23;20050;-90
2023/06/11 15:08:15;;;;;;;2.42;2.22;;;;;;;;;;12910651;22;20032;-89
2023/06/11 15:13:20;;;;;;;2.40;2.05;;;;;;;;;;12880591;23;20027;-93
2023/06/11 15:18:23;;;;;;;;;;;;;;;;;;12911138;22;20027;-89
2023/06/11 15:23:27;;;;;;;1.70;1.60;;;;;;;;;;12908138;23;19916;-89
2023/06/11 15:28:32;;;;;;;2.00;1.70;;;;;;;;;;12911027;22;20032;-89
2023/06/11 15:33:35;;;;;;;2.88;1.77;;;;;;;;;;12884116;23;20195;-90
2023/06/11 15:38:39;;;;;;;2.28;1.67;;;;;;;;;;12883901;23;20024;-90
2023/06/11 15:43:43;;;;;;;2.17;1.95;;;;;;;;;;12910926;23;20020;-89
2023/06/11 15:48:47;;;;;;;2.28;2.05;;;;;;;;;;12882900;23;20031;-89
2023/06/11 15:53:50;;;;;;;2.58;1.77;;;;;;;;;;12884614;23;20460;-89
2023/06/11 15:58:55;;;;;;;3.03;1.88;;;;;;;;;;12915833;22;20027;-88
2023/06/11 16:03:59;;;;;;;2.58;2.03;;;;;;;;;;12907742;23;20024;-89
2023/06/11 16:09:02;;;;;;;2.45;1.90;;;;;;;;;;12882900;23;20198;-89
2023/06/11 16:14:07;;;;;;;2.13;1.92;;;;;;;;;;12883075;23;20016;-92
2023/06/11 16:19:10;;;;;;;2.15;1.95;;;;;;;;;;12910811;22;20058;-89
2023/06/11 16:24:14;;;;;;;2.45;2.05;;;;;;;;;;12882755;22;20086;-89
2023/06/11 16:29:18;;;;;;;2.45;2.05;;;;;;;;;;12884058;23;20016;-88
2023/06/11 16:34:22;;;;;;;1.85;1.52;;;;;;;;;;12909289;22;20074;-90
2023/06/11 16:39:25;;;;;;;3.40;2.00;;;;;;;;;;12913106;23;20479;-89
2023/06/11 16:44:31;;;;;;;2.07;1.70;;;;;;;;;;12884051;22;20098;-89
2023/06/11 16:49:34;;;;;;;1.90;1.70;;;;;;;;;;12887067;23;20031;-88
2023/06/11 16:54:38;;;;;;;2.15;1.95;;;;;;;;;;12887500;22;20078;-90
2023/06/11 16:59:43;;;;;;;1.73;1.58;;;;;;;;;;12891988;23;20028;-89
2023/06/11 17:04:46;;;;;;;2.35;1.92;;;;;;;;;;12921997;22;20016;-91
2023/06/11 17:09:50;;;;;;;2.05;1.80;;;;;;;;;;12890248;23;20547;-89
2023/06/11 17:14:55;;;;;;;2.90;1.60;;;;;;;;;;12913220;22;20016;-90
2023/06/11 17:19:59;;;;;;;5.07;2.30;;;;;;;;;;12909486;23;20344;-89
2023/06/11 17:25:03;;;;;;;2.10;1.77;;;;;;;;;;12886248;22;20423;-89
2023/06/11 17:30:10;;;;;;;1.93;1.73;;;;;;;;;;12885022;23;20181;-92
2023/06/11 17:35:14;;;;;;;2.00;1.65;;;;;;;;;;12910345;22;20075;-89
2023/06/11 17:40:17;;;;;;;2.10;1.50;;;;;;;;;;12885781;23;20123;-89
2023/06/11 17:45:24;;;;;;;2.00;1.80;;;;;;;;;;12884919;22;20391;-91
2023/06/11 17:50:28;;;;;;;2.10;1.52;;;;;;;;;;12885074;23;20448;-89
2023/06/11 17:55:31;;;;;;;2.00;1.52;;;;;;;;;;12886062;22;20019;-88
2023/06/11 18:00:37;;;;;;;2.60;1.60;;;;;;;;;;12884410;23;20028;-89
2023/06/11 18:05:40;;;;;;;1.83;1.67;;;;;;;;;;12911414;22;20031;-89
2023/06/11 18:10:44;;;;;;;2.72;2.10;;;;;;;;;;12910804;23;20032;-89
2023/06/11 18:15:49;;;;;;;1.60;1.35;;;;;;;;;;12883956;22;20024;-89
2023/06/11 18:20:52;;;;;;;1.92;1.50;;;;;;;;;;12884067;23;20055;-89
2023/06/11 18:25:56;;;;;;;3.00;1.20;;;;;;;;;;12911613;22;20024;-89
2023/06/11 18:31:01;;;;;;;2.28;1.83;;;;;;;;;;12884283;23;20108;-91
2023/06/11 18:36:05;;;;;;;2.35;1.58;;;;;;;;;;12883616;22;20082;-89
2023/06/11 18:41:08;;;;;;;2.40;1.70;;;;;;;;;;12884544;23;20031;-89
2023/06/11 18:46:13;;;;;;;1.70;1.33;;;;;;;;;;12911495;22;20024;-89
2023/06/11 18:51:16;;;;;;;1.90;1.40;;;;;;;;;;12881058;23;20028;-87
2023/06/11 18:56:20;;;;;;;1.88;1.60;;;;;;;;;;12876636;22;20064;-87
2023/06/11 19:01:25;;;;;;;2.28;1.67;;;;;;;;;;12877426;23;20036;-87
2023/06/11 19:06:28;;;;;;;2.17;1.50;;;;;;;;;;12876907;22;20049;-88
2023/06/11 19:11:32;;;;;;;2.00;1.58;;;;;;;;;;12878439;23;20275;-87
2023/06/11 19:16:38;;;;;;;1.65;1.55;;;;;;;;;;12877692;22;20024;-88
2023/06/11 19:21:41;;;;;;;1.55;1.45;;;;;;;;;;12906129;23;20078;-87
2023/06/11 19:26:45;;;;;;;1.85;1.58;;;;;;;;;;12878347;22;20475;-88
2023/06/11 19:31:50;;;;;;;1.92;1.73;;;;;;;;;;12880024;23;20027;-88
2023/06/11 19:36:53;;;;;;;;;;;;;;;;;;12879544;22;20024;-87
2023/06/11 19:41:57;;;;;;;3.20;1.23;;;;;;;;;;12878883;23;19919;-88
2023/06/11 19:47:02;;;;;;;3.63;1.95;;;;;;;;;;12878801;22;20074;-88
2023/06/11 19:52:06;;;;;;;1.80;1.40;;;;;;;;;;12904128;23;20052;-88
2023/06/11 19:57:14;;;;;;;2.13;1.65;;;;;;;;;;12902882;22;20020;-88
2023/06/11 20:02:20;;;;;;;1.83;1.63;;;;;;;;;;12879296;23;20087;-87
2023/06/11 20:07:23;;;;;;;2.50;1.52;;;;;;;;;;12878952;23;20667;-88
2023/06/11 20:12:27;;;;;;;3.85;1.98;;;;;;;;;;12878929;23;20028;-88
2023/06/11 20:17:32;;;;;;;2.33;1.60;;;;;;;;;;12879578;23;20174;-87
2023/06/11 20:22:35;;;;;;;2.47;1.67;;;;;;;;;;12882883;23;20048;-88
2023/06/11 20:27:39;;;;;;;1.83;1.42;;;;;;;;;;12882706;23;20078;-88
2023/06/11 20:32:44;;;;;;;2.47;1.60;;;;;;;;;;12883985;23;20028;-87
2023/06/11 20:37:48;;;;;;;1.83;1.48;;;;;;;;;;12881906;23;20020;-88
2023/06/11 20:42:51;;;;;;;1.70;1.60;;;;;;;;;;12909566;23;20038;-87
2023/06/11 20:47:56;;;;;;;1.95;1.75;;;;;;;;;;12909590;22;20363;-88
2023/06/11 20:53:00;;;;;;;1.83;1.63;;;;;;;;;;12910043;23;20031;-87
2023/06/11 20:58:04;;;;;;;2.10;1.70;;;;;;;;;;12909195;22;20258;-87
2023/06/11 21:03:09;;;;;;;2.97;1.70;;;;;;;;;;12911417;23;20024;-88
2023/06/11 21:08:17;;;;;;;4.33;1.80;;;;;;;;;;12883510;23;20431;-88
2023/06/11 21:13:21;;;;;;;2.20;1.85;;;;;;;;;;12883333;23;20024;-88
2023/06/11 21:18:25;;;;;;;2.13;1.80;;;;;;;;;;12883139;23;20020;-87
2023/06/11 21:23:29;;;;;;;2.43;2.20;;;;;;;;;;12910850;23;20027;-88
2023/06/11 21:28:32;;;;;;;2.15;1.80;;;;;;;;;;12881827;23;20737;-88
2023/06/11 21:33:39;;;;;;;4.87;2.40;;;;;;;;;;12881592;23;20031;-88
2023/06/11 21:38:42;;;;;;;2.22;1.70;;;;;;;;;;12881907;23;20028;-88
2023/06/11 21:43:46;;;;;;;2.58;1.95;;;;;;;;;;12908797;23;20084;-88
2023/06/11 21:48:51;;;;;;;2.38;2.10;;;;;;;;;;12883423;23;20030;-88
2023/06/11 21:53:54;;;;;;;3.00;2.00;;;;;;;;;;12882672;23;20042;-88
2023/06/11 22:04:46;;;;;;;3.83;2.15;;;;;;;;;;12883955;22;20459;-89
2023/06/11 22:09:51;;;;;;;5.63;2.45;;;;;;;;;;12885247;23;20022;-89
2023/06/11 22:14:54;;;;;;;2.67;2.22;;;;;;;;;;12886060;22;20414;-89
2023/06/11 22:20:06;;;;;;;2.95;2.00;;;;;;;;;;12885820;23;20029;-89
2023/06/11 22:25:11;;;;;;;2.83;1.98;;;;;;;;;;12910506;22;20463;-90
2023/06/11 22:30:15;;;;;;;3.95;2.28;;;;;;;;;;12883925;23;20482;-90
2023/06/11 22:35:20;;;;;;;2.08;1.83;;;;;;;;;;12912159;22;20016;-89
2023/06/11 22:40:24;;;;;;;2.35;1.75;;;;;;;;;;12885534;23;20762;-89
2023/06/11 22:45:27;;;;;;;3.35;2.05;;;;;;;;;;12884621;22;20078;-90
2023/06/11 22:50:33;;;;;;;2.22;2.00;;;;;;;;;;12912026;23;20027;-91
2023/06/11 22:55:37;;;;;;;;;;;;;;;;;;12885442;22;20030;-90
2023/06/11 23:00:40;;;;;;;1.98;1.58;;;;;;;;;;12910611;23;20298;-89
2023/06/11 23:05:45;;;;;;;3.65;2.17;;;;;;;;;;12911493;22;20024;-91
2023/06/11 23:10:49;;;;;;;2.53;1.92;;;;;;;;;;12885595;23;20024;-90
2023/06/11 23:15:52;;;;;;;2.17;1.77;;;;;;;;;;12910154;22;20016;-89
2023/06/11 23:20:57;;;;;;;2.70;1.90;;;;;;;;;;12909612;23;20074;-90
2023/06/11 23:26:02;;;;;;;2.50;2.03;;;;;;;;;;12910860;22;20016;-89
2023/06/11 23:31:43;;;;;;;2.33;2.10;;;;;;;;;;12911414;23;20024;-88
2023/06/11 23:36:48;;;;;;;2.63;1.85;;;;;;;;;;12910078;22;20111;-89
2023/06/11 23:41:51;;;;;;;2.22;1.90;;;;;;;;;;12908770;23;20032;-89
2023/06/11 23:46:55;;;;;;;4.70;2.30;;;;;;;;;;12923792;22;20025;-89
2023/06/11 23:52:00;;;;;;;2.33;1.95;;;;;;;;;;12883541;23;20024;-89
2023/06/11 23:57:04;;;;;;;2.92;1.92;;;;;;;;;;12882837;22;20027;-91
